Airfield :
LOGIN :

Register | Disclaimer

   EN    FR    IT 

 










Legend :    VFR   Marginal VFR   IFR   Intensive IFR   Very Intensive IFR
Visi :
Ceiling :
>= 8 km
>= 3000ft
5 to 8 km
1000 to 3000 ft
1500m to 5 km
500 to 1000 ft
800 to 1500m
200 to 500 ft
< 800m
< 200 ft
Symbols :   Thunderstorms  Fog  Heavy snow  Heavy precipitations  Wind > 20 kt
SIGMETs :     Misc.  Thunderstorms  Icing  Turbulence  Mountain Waves  Volcanic Ashes







- Airport Elevation : 209 ft
- IATA code : CLY
- Download approach charts


LFKC - Calvi

CURRENT METAR :
  • 231930Z AUTO VRB01KT 9999 FEW072 BKN088 OVC110 14/10 Q1017 TEMPO RA

EXPIRED METARs :
  • 231900Z AUTO VRB01KT 9999 BKN092 OVC110 14/10 Q1017 TEMPO RA
  • 231830Z AUTO 24002KT CAVOK 14/09 Q1017 TEMPO RA
  • 231800Z AUTO 00000KT 9999 FEW056 OVC140 15/09 Q1016 TEMPO RA
  • 231730Z AUTO VRB02KT 9999 4700 FEW060 OVC140 16/10 Q1016 TEMPO RA
  • 231700Z AUTO VRB03KT CAVOK 16/09 Q1016 NOSIG

TAF TAF LFKC
Valid from the 23 at 18:00 until the 24 at 18:00 UTC


231700Z 2318/2418 18005KT 9999 FEW050 SCT100 BKN260
PROB40
TEMPO 2318/2324 RA SCT026 BKN040
BECMG 2406/2408 CAVOK
TEMPO 2412/2415 04010KT FEW033 SCT100 BKN250 TX20/2411Z TN08/2406Z
ATIS : +33 4 95 65 82 49
No reported NOTAMs for that airfield.
1 SIGMET reported for the Marseille FIR (LFMM) :
 
Embedded thunderstorms
LFMM SIGMET 15 VALID 231800/232000 LFPW
LFMM MARSEILLE FIR/UIR EMBD TS FCST WI N4630 E00330 - N4630 E00600 - N4300 E00530 - N4345 E00345 TOP FL320 STNR NC=



MET'MAP, your aeronautical weather chart ! - Copyright ORBIFLY December 2007 - Disclaimer

ORBIFLY MET'MAP TEAM :

Programming & Development : Alexandra Zaïnal
Concept & Development : Baudouin d'Aumeries
Co-Development & Prog : Marc-Olivier Méhu
Technical & hardware support : Manuel Goepfert

Contact : metmap@orbifly.com




SOURCES & CREDITS :

   NOAA